Time;durP1;ratioP1;P1;durP2;ratioP2;P2;SDS_P1;SDS_P2;PMS_P1;PMS_P2;Temp;Humidity;BMP_temperature;BMP_pressure;BME280_temperature;BME280_humidity;BME280_pressure;Samples;Min_cycle;Max_cycle;Signal;HPM_P1;HPM_P2
2021/04/06 00:00:59;;;;;;;2.20;1.00;;;-0.40;99.90;;;-1.94;100.00;99495.63;4998581;28;74650;-60
2021/04/06 00:04:12;;;;;;;5.33;1.20;;;-0.50;99.90;;;-1.93;100.00;99494.69;5006840;28;79949;-59
2021/04/06 00:07:26;;;;;;;5.27;1.40;;;-0.50;99.90;;;-1.99;100.00;99495.09;5005743;28;79694;-58
2021/04/06 00:10:48;;;;;;;5.37;1.60;;;-0.60;99.90;;;-2.02;100.00;99490.88;5007510;28;71915;-60
2021/04/06 00:14:08;;;;;;;3.23;1.20;;;-0.60;99.90;;;-1.99;100.00;99502.97;4995521;28;75134;-60
2021/04/06 00:17:23;;;;;;;4.33;1.50;;;-0.60;99.90;;;-2.04;100.00;99503.25;4985390;28;79220;-60
2021/04/06 00:20:58;;;;;;;6.17;2.20;;;-0.60;99.90;;;-2.01;100.00;99500.44;4993101;28;68742;-61
2021/04/06 00:24:11;;;;;;;3.33;1.30;;;-0.60;99.90;;;-2.03;100.00;99499.69;4973513;28;62186;-62
2021/04/06 00:27:30;;;;;;;3.07;1.30;;;-0.60;99.90;;;-2.09;100.00;99509.69;4994659;28;65233;-63
2021/04/06 00:30:46;;;;;;;3.50;1.60;;;-0.70;99.90;;;-2.11;100.00;99504.59;5015782;28;60078;-65
2021/04/06 00:34:01;;;;;;;3.50;1.73;;;-0.70;99.90;;;-2.14;100.00;99504.78;5026418;28;51451;-60
2021/04/06 00:37:22;;;;;;;5.00;1.23;;;-0.70;99.90;;;-2.11;100.00;99511.59;5021427;28;64767;-61
2021/04/06 00:40:36;;;;;;;3.77;1.30;;;-0.70;99.90;;;-2.12;100.00;99515.16;5021768;28;67689;-60
2021/04/06 00:43:50;;;;;;;2.03;1.37;;;-0.70;99.90;;;-2.13;100.00;99522.19;5001497;28;51456;-60
2021/04/06 00:47:02;;;;;;;1.93;0.90;;;-0.70;99.90;;;-2.04;100.00;99524.22;4998011;28;67008;-58
2021/04/06 00:50:16;;;;;;;2.33;1.23;;;-0.70;99.90;;;-2.01;100.00;99516.16;4994777;28;65404;-59
2021/04/06 00:53:28;;;;;;;2.87;1.20;;;-0.70;99.90;;;-1.96;100.00;99526.34;4996910;28;62833;-61
2021/04/06 00:56:41;;;;;;;6.03;1.30;;;-0.60;99.90;;;-1.93;100.00;99526.13;4987546;28;78116;-59
2021/04/06 01:00:04;;;;;;;4.87;1.47;;;-0.50;99.90;;;-2.00;100.00;99523.09;4993582;28;71227;-61
2021/04/06 01:03:33;;;;;;;4.43;1.47;;;-0.50;99.90;;;-2.00;100.00;99527.50;4997083;28;68212;-62
2021/04/06 01:07:01;;;;;;;3.67;1.30;;;-0.50;99.90;;;-1.95;100.00;99525.41;4982036;28;86254;-60
2021/04/06 01:10:19;;;;;;;4.27;1.27;;;-0.40;99.90;;;-1.85;100.00;99523.84;4996080;28;78727;-61
2021/04/06 01:13:31;;;;;;;6.20;1.60;;;-0.30;99.90;;;-1.80;100.00;99524.41;4991766;28;77835;-61
2021/04/06 01:16:43;;;;;;;5.03;1.50;;;-0.20;99.90;;;-1.78;100.00;99519.91;5000982;28;86495;-61
2021/04/06 01:19:55;;;;;;;6.53;1.40;;;-0.20;99.90;;;-1.74;100.00;99513.53;5001227;28;81197;-60
2021/04/06 01:23:12;;;;;;;6.23;1.53;;;-0.10;99.90;;;-1.76;100.00;99517.19;5015051;28;76307;-60
2021/04/06 01:26:27;;;;;;;4.33;1.50;;;-0.10;99.90;;;-1.74;100.00;99523.19;5029547;28;77307;-61
2021/04/06 01:29:38;;;;;;;8.17;1.90;;;-0.10;99.90;;;-1.82;100.00;99521.88;5024172;28;82962;-61
2021/04/06 01:36:19;;;;;;;2.73;1.50;;;-0.10;99.90;;;-1.86;100.00;99514.34;4993159;28;92026;-60
2021/04/06 01:39:32;;;;;;;3.10;1.03;;;-0.20;99.90;;;-1.83;100.00;99511.50;5010609;28;69686;-60
2021/04/06 01:42:54;;;;;;;4.47;1.50;;;-0.10;99.90;;;-1.83;100.00;99517.59;5012561;28;66444;-60
2021/04/06 01:46:20;;;;;;;4.70;1.23;;;-0.20;99.90;;;-1.82;100.00;99508.78;5008970;28;60114;-59
2021/04/06 01:49:32;;;;;;;6.90;1.67;;;-0.10;99.90;;;-1.83;100.00;99491.38;5020781;28;66988;-61
2021/04/06 01:52:43;;;;;;;4.07;1.37;;;-0.10;99.90;;;-1.85;100.00;99501.09;5010776;28;66717;-59
2021/04/06 01:56:08;;;;;;;5.47;1.70;;;-0.10;99.90;;;-1.89;100.00;99491.78;5027510;28;67282;-60
2021/04/06 01:59:21;;;;;;;5.07;1.40;;;-0.10;99.90;;;-1.90;100.00;99513.69;5015268;28;92219;-60
2021/04/06 02:02:35;;;;;;;3.20;1.53;;;-0.20;99.90;;;-1.93;100.00;99510.41;5029683;28;75737;-61
2021/04/06 02:05:47;;;;;;;3.03;1.23;;;-0.20;99.90;;;-1.93;100.00;99507.78;5014263;28;86641;-60
2021/04/06 02:09:02;;;;;;;4.53;1.50;;;-0.20;99.90;;;-1.98;100.00;99508.06;5027886;28;66179;-61
2021/04/06 02:12:16;;;;;;;3.07;1.73;;;-0.20;99.90;;;-1.97;100.00;99507.13;5022511;28;89713;-60
2021/04/06 02:16:03;;;;;;;3.03;1.40;;;-0.20;99.90;;;-2.06;100.00;99510.34;5008359;28;83180;-59
2021/04/06 02:19:19;;;;;;;3.17;1.60;;;-0.20;99.90;;;-2.14;100.00;99498.69;4925744;28;93578;-60
2021/04/06 02:22:33;;;;;;;2.17;1.33;;;-0.30;99.90;;;-2.24;100.00;99501.91;4944234;28;78305;-60
2021/04/06 02:25:57;;;;;;;3.67;1.90;;;-0.40;99.90;;;-2.29;100.00;99498.72;5015050;28;85588;-60
2021/04/06 02:29:10;;;;;;;2.40;1.30;;;-0.50;99.90;;;-2.40;100.00;99505.56;4996986;28;93546;-60
2021/04/06 02:32:23;;;;;;;4.57;1.50;;;-0.60;99.90;;;-2.43;100.00;99508.38;4988287;28;93326;-60
2021/04/06 02:35:37;;;;;;;4.13;1.73;;;-0.70;99.90;;;-2.45;100.00;99505.00;4993864;28;90782;-60
2021/04/06 02:38:49;;;;;;;3.47;1.17;;;-0.80;99.90;;;-2.42;100.00;99512.66;4997857;28;82982;-60
2021/04/06 02:42:12;;;;;;;3.47;1.57;;;-0.80;99.90;;;-2.43;100.00;99505.75;4991948;28;92315;-60
2021/04/06 02:45:30;;;;;;;3.80;1.43;;;-0.80;99.90;;;-2.41;100.00;99511.75;5001817;28;88509;-60
2021/04/06 02:48:42;;;;;;;2.50;1.50;;;-0.80;99.90;;;-2.37;100.00;99510.63;5011930;28;82377;-60
2021/04/06 02:51:54;;;;;;;2.87;1.37;;;-0.70;99.90;;;-2.38;100.00;99504.53;5014845;27;78086;-60
2021/04/06 02:55:05;;;;;;;3.23;1.37;;;-0.70;99.90;;;-2.34;100.00;99507.78;5008255;28;78378;-60
2021/04/06 02:58:21;;;;;;;3.90;1.40;;;-0.60;99.90;;;-2.36;100.00;99505.28;4984910;28;75649;-60
2021/04/06 03:01:38;;;;;;;4.70;1.47;;;-0.60;99.90;;;-2.42;100.00;99504.81;5000457;28;82526;-61
2021/04/06 03:05:02;;;;;;;4.10;1.70;;;-0.60;99.90;;;-2.49;100.00;99500.91;4985381;28;88365;-60
2021/04/06 03:08:15;;;;;;;3.87;1.50;;;-0.70;99.90;;;-2.55;100.00;99515.19;5016118;28;77858;-60
2021/04/06 03:11:27;;;;;;;6.10;2.07;;;-0.80;99.90;;;-2.61;100.00;99511.19;5012852;28;85534;-59
2021/04/06 03:18:18;;;;;;;4.27;1.50;;;-1.00;99.90;;;-2.80;100.00;99510.63;5021941;28;79924;-59
2021/04/06 03:21:30;;;;;;;2.23;1.40;;;-1.10;99.90;;;-2.78;100.00;99505.31;5023861;28;83517;-63
2021/04/06 03:24:44;;;;;;;6.33;1.73;;;-1.10;99.90;;;-2.75;100.00;99507.75;5013396;28;74417;-61
2021/04/06 03:28:00;;;;;;;4.80;1.53;;;-1.10;99.90;;;-2.70;100.00;99505.66;5034859;28;61044;-60
2021/04/06 03:31:30;;;;;;;3.40;1.50;;;-1.10;99.90;;;-2.68;100.00;99502.03;5011218;28;64894;-61
2021/04/06 03:34:54;;;;;;;5.10;1.90;;;-1.00;99.90;;;-2.69;100.00;99510.81;5016236;28;76319;-61
2021/04/06 03:38:07;;;;;;;3.87;1.30;;;-1.00;99.90;;;-2.65;100.00;99507.09;5008782;28;68210;-61
2021/04/06 03:41:20;;;;;;;7.73;1.80;;;-1.00;99.90;;;-2.64;100.00;99498.28;5010288;28;63945;-60
2021/04/06 03:44:34;;;;;;;6.70;1.97;;;-1.00;99.90;;;-2.63;100.00;99499.97;5013206;28;76086;-61
2021/04/06 03:47:51;;;;;;;4.53;1.50;;;-0.90;99.90;;;-2.64;100.00;99507.91;5021555;28;56826;-60
2021/04/06 03:51:15;;;;;;;4.60;1.60;;;-0.90;99.90;;;-2.59;100.00;99508.47;5011087;28;74545;-60
2021/04/06 03:54:32;;;;;;;3.93;1.30;;;-0.80;99.90;;;-2.57;100.00;99496.13;5015373;28;61638;-61
2021/04/06 03:58:17;;;;;;;4.40;1.23;;;-0.80;99.90;;;-2.43;100.00;99510.97;5018046;28;54135;-59
2021/04/06 04:01:29;;;;;;;5.37;1.93;;;-0.70;99.90;;;-2.36;100.00;99509.69;4951254;28;57550;-60
2021/04/06 04:04:42;;;;;;;5.33;1.40;;;-0.60;99.90;;;-2.33;100.00;99512.09;4958596;28;63359;-61
2021/04/06 04:07:53;;;;;;;5.73;1.40;;;-0.60;99.90;;;-2.25;100.00;99505.44;5016925;28;61681;-60
2021/04/06 04:11:05;;;;;;;5.17;1.60;;;-0.50;99.90;;;-2.24;100.00;99493.19;4999776;28;71299;-60
2021/04/06 04:14:17;;;;;;;3.40;1.30;;;-0.40;99.90;;;-2.20;100.00;99500.75;5019432;28;67265;-60
2021/04/06 04:17:29;;;;;;;2.50;1.70;;;-0.40;99.90;;;-2.09;100.00;99496.59;4998758;28;76653;-60
2021/04/06 04:20:58;;;;;;;3.03;1.23;;;-0.30;99.90;;;-2.13;100.00;99484.66;5013784;28;62168;-60
2021/04/06 04:24:09;;;;;;;3.37;1.40;;;-0.30;99.90;;;-2.08;100.00;99480.78;5015692;28;64411;-60
2021/04/06 04:27:20;;;;;;;8.30;1.90;;;-0.30;99.90;;;-2.17;100.00;99491.84;5018927;28;55530;-60
2021/04/06 04:34:05;;;;;;;4.90;1.40;;;-0.20;99.90;;;-2.19;100.00;99486.69;4978125;28;60766;-60
2021/04/06 04:37:17;;;;;;;3.50;1.80;;;-0.20;99.90;;;-2.13;100.00;99477.63;5022014;28;53253;-61
2021/04/06 04:40:28;;;;;;;5.40;1.60;;;-0.20;99.90;;;-2.09;100.00;99486.09;5023316;28;54180;-60
2021/04/06 04:43:49;;;;;;;4.30;2.00;;;-0.20;99.90;;;-2.10;100.00;99482.66;5024260;28;54998;-60
2021/04/06 04:47:07;;;;;;;3.80;1.70;;;-0.20;99.90;;;-2.11;100.00;99475.75;5040899;28;58056;-60
2021/04/06 04:50:19;;;;;;;2.53;1.53;;;-0.20;99.90;;;-2.12;100.00;99473.22;5023431;28;63179;-61
2021/04/06 04:53:53;;;;;;;4.20;1.80;;;-0.20;99.90;;;-2.08;100.00;99474.69;5042160;28;53505;-59
2021/04/06 04:57:04;;;;;;;4.60;1.60;;;-0.20;99.90;;;-2.19;100.00;99472.75;5040874;28;54330;-61
2021/04/06 05:00:16;;;;;;;5.03;2.30;;;-0.20;99.90;;;-2.24;100.00;99475.69;5046640;28;47383;-61
2021/04/06 05:03:28;;;;;;;4.13;2.47;;;-0.30;99.90;;;-2.19;100.00;99470.97;5018825;28;50267;-62
2021/04/06 05:06:40;;;;;;;6.47;1.97;;;-0.40;99.90;;;-2.08;100.00;99469.44;5024615;28;51121;-61
2021/04/06 05:10:09;;;;;;;4.27;2.20;;;-0.40;99.90;;;-1.96;100.00;99469.50;5024401;28;49965;-59
2021/04/06 05:13:20;;;;;;;4.40;2.80;;;-0.40;99.90;;;-1.86;100.00;99467.97;5006055;28;51174;-61
2021/04/06 05:16:32;;;;;;;4.13;2.27;;;-0.40;99.90;;;-1.79;100.00;99467.56;5025233;28;43368;-61
2021/04/06 05:19:44;;;;;;;4.43;2.57;;;-0.40;99.90;;;-1.70;100.00;99474.81;5022909;28;52257;-60
2021/04/06 05:22:56;;;;;;;3.00;2.20;;;-0.30;99.90;;;-1.57;100.00;99483.56;5021564;28;51805;-61
2021/04/06 05:29:51;;;;;;;3.23;2.70;;;-0.10;99.90;;;-1.61;100.00;99479.50;5009982;28;64034;-61
2021/04/06 05:33:03;;;;;;;5.97;3.50;;;0.00;99.90;;;-1.38;100.00;99473.56;5016970;28;60435;-60
2021/04/06 05:36:15;;;;;;;5.87;3.60;;;0.10;99.90;;;-1.28;100.00;99471.13;5014978;28;64099;-60
2021/04/06 05:39:26;;;;;;;6.13;2.60;;;0.20;99.90;;;-1.30;100.00;99466.00;5020593;28;58429;-60
2021/04/06 05:42:50;;;;;;;5.53;3.60;;;0.30;99.90;;;-1.17;100.00;99456.34;5016051;28;54219;-59
2021/04/06 05:46:02;;;;;;;5.53;3.40;;;0.40;99.90;;;-1.20;100.00;99460.94;5031933;28;52830;-60
2021/04/06 05:49:15;;;;;;;6.83;3.33;;;0.60;99.90;;;-1.02;100.00;99458.88;5020758;28;69234;-59
2021/04/06 05:52:27;;;;;;;7.17;3.63;;;0.70;99.90;;;-0.90;100.00;99471.16;5027935;28;68077;-60
2021/04/06 05:55:39;;;;;;;4.70;3.03;;;0.80;99.90;;;-0.84;100.00;99462.84;5026936;28;61173;-59
2021/04/06 05:58:55;;;;;;;5.00;3.17;;;0.90;99.90;;;-0.65;100.00;99465.88;5029549;28;54446;-60
2021/04/06 06:02:08;;;;;;;5.67;2.83;;;1.10;99.90;;;-1.00;100.00;99473.59;5015318;28;59201;-59
2021/04/06 06:05:51;;;;;;;6.07;3.93;;;1.30;99.90;;;-1.13;100.00;99473.56;5012331;28;64570;-59
2021/04/06 06:12:39;;;;;;;4.73;3.70;;;1.40;99.90;;;-1.19;100.00;99481.00;5022498;28;61778;-60
2021/04/06 06:20:00;;;;;;;5.60;3.63;;;1.30;99.90;;;-1.32;100.00;99474.91;5024354;28;57811;-59
2021/04/06 06:23:03;;;;;;;4.57;3.77;;;1.20;99.90;;;-1.22;100.00;99473.34;5012788;28;65431;-59
2021/04/06 06:26:38;;;;;;;8.20;4.33;;;1.20;99.90;;;-1.27;100.00;99472.81;5034996;27;54398;-59
2021/04/06 06:29:51;;;;;;;9.90;4.97;;;1.20;99.90;;;-1.34;100.00;99475.00;5030717;28;58593;-59
2021/04/06 06:33:08;;;;;;;7.17;4.77;;;1.10;99.90;;;-1.29;100.00;99480.81;5038437;28;52871;-56
2021/04/06 06:36:22;;;;;;;6.87;4.00;;;1.10;99.90;;;-1.34;100.00;99475.00;5029939;28;55569;-60
2021/04/06 06:39:36;;;;;;;8.97;4.50;;;1.10;99.90;;;-1.23;100.00;99477.75;5030132;28;51569;-59
2021/04/06 06:42:50;;;;;;;7.57;4.00;;;1.00;99.90;;;-1.21;100.00;99464.53;5023638;28;50033;-58
2021/04/06 06:46:04;;;;;;;6.50;4.00;;;1.00;99.90;;;-1.12;100.00;99469.16;5034300;28;60657;-60
2021/04/06 06:49:52;;;;;;;5.97;4.60;;;1.10;99.90;;;-1.20;100.00;99467.03;5042348;28;51512;-60
2021/04/06 06:53:03;;;;;;;6.53;4.07;;;1.10;99.90;;;-0.79;100.00;99476.50;4954722;28;62097;-60
2021/04/06 06:59:43;;;;;;;4.33;3.67;;;1.30;99.90;;;-0.36;100.00;99469.06;5035444;28;45687;-60
2021/04/06 07:03:04;;;;;;;4.47;3.03;;;1.50;99.90;;;-0.40;100.00;99457.09;5036904;28;53339;-60
2021/04/06 07:06:22;;;;;;;4.87;3.13;;;1.90;99.90;;;-0.53;100.00;99461.53;5032913;28;48932;-59
2021/04/06 07:09:50;;;;;;;5.47;3.23;;;2.00;99.90;;;-0.47;100.00;99456.69;5032640;28;48651;-60
2021/04/06 07:13:05;;;;;;;4.60;4.13;;;2.10;99.90;;;-0.48;100.00;99446.28;5040097;28;45430;-61
2021/04/06 07:16:17;;;;;;;8.30;4.33;;;2.10;99.90;;;-0.55;100.00;99451.16;5044690;28;54516;-61
2021/04/06 07:19:30;;;;;;;5.30;4.20;;;2.10;99.90;;;-0.44;100.00;99448.59;5011663;28;43565;-59
2021/04/06 07:22:42;;;;;;;7.00;4.50;;;2.10;99.90;;;-0.28;100.00;99453.59;5037466;28;48995;-60
2021/04/06 07:25:53;;;;;;;5.17;4.30;;;2.20;99.90;;;-0.27;100.00;99451.81;5041925;28;45210;-60
2021/04/06 07:29:05;;;;;;;5.83;4.27;;;2.30;99.90;;;-0.22;100.00;99461.03;5045082;28;43912;-60
2021/04/06 07:32:18;;;;;;;7.70;3.90;;;2.30;99.90;;;-0.23;100.00;99454.09;5043286;28;42207;-58
2021/04/06 07:35:31;;;;;;;5.53;4.03;;;2.30;99.90;;;-0.25;100.00;99455.19;5040636;28;56820;-61
2021/04/06 07:38:43;;;;;;;4.73;4.20;;;2.40;99.90;;;-0.32;100.00;99453.91;5040320;27;53942;-61
2021/04/06 07:41:57;;;;;;;5.93;4.70;;;2.40;99.90;;;-0.09;100.00;99453.94;5023854;28;48325;-59
2021/04/06 07:45:08;;;;;;;9.53;4.83;;;2.40;99.90;;;0.06;100.00;99445.88;5044146;28;53921;-60
2021/04/06 07:48:19;;;;;;;6.73;5.07;;;2.40;99.90;;;-0.08;100.00;99450.34;5032020;28;49937;-59
2021/04/06 07:51:56;;;;;;;6.90;5.17;;;2.50;99.90;;;0.19;100.00;99450.13;5022364;28;49750;-60
2021/04/06 07:55:26;;;;;;;7.47;4.60;;;2.60;99.90;;;0.27;100.00;99452.19;5036881;28;53796;-59
2021/04/06 07:59:07;;;;;;;6.30;4.50;;;2.80;99.90;;;1.03;100.00;99435.88;5002645;28;54205;-58
2021/04/06 08:03:06;;;;;;;4.80;4.33;;;3.10;99.90;;;1.01;100.00;99440.41;4954890;28;55134;-58
2021/04/06 08:06:49;;;;;;;7.13;5.30;;;3.60;99.90;;;1.34;100.00;99447.50;4943208;28;47531;-59
2021/04/06 08:10:20;;;;;;;4.50;3.93;;;4.00;99.90;;;1.27;100.00;99441.88;5043631;28;55177;-59
2021/04/06 08:13:32;;;;;;;6.40;4.27;;;4.50;99.80;;;1.63;100.00;99445.19;5002933;28;52480;-58
2021/04/06 08:16:44;;;;;;;5.60;4.13;;;4.70;98.00;;;1.69;100.00;99435.00;5037358;28;49399;-59
2021/04/06 08:20:05;;;;;;;6.33;4.83;;;5.00;97.10;;;1.69;100.00;99448.19;5039743;28;50983;-58
2021/04/06 08:23:19;;;;;;;6.10;4.67;;;5.20;96.40;;;1.61;100.00;99447.94;5014526;28;49737;-59
2021/04/06 08:30:35;;;;;;;6.07;3.80;;;5.40;94.80;;;1.96;100.00;99446.94;5024246;28;46880;-60
2021/04/06 08:34:13;;;;;;;4.30;3.70;;;5.50;92.00;;;2.48;100.00;99446.13;5021755;28;53221;-60
2021/04/06 08:37:47;;;;;;;4.47;4.00;;;5.70;90.00;;;2.04;100.00;99445.34;4953060;28;45268;-58
2021/04/06 08:44:53;;;;;;;6.10;3.87;;;6.00;83.90;;;2.13;100.00;99449.88;5024266;28;44394;-58
2021/04/06 08:48:31;;;;;;;5.57;4.07;;;5.90;83.10;;;2.03;100.00;99448.94;5007687;28;49154;-58
2021/04/06 08:51:51;;;;;;;6.33;5.40;;;5.80;81.30;;;2.63;100.00;99451.94;4960639;28;49364;-60
2021/04/06 08:55:02;;;;;;;8.20;3.63;;;5.90;84.50;;;2.05;100.00;99449.66;5008654;28;51272;-60
2021/04/06 08:58:46;;;;;;;5.77;4.10;;;6.10;82.70;;;1.84;100.00;99453.22;5026372;28;51659;-58
2021/04/06 09:02:02;;;;;;;6.20;4.50;;;5.90;79.30;;;2.74;100.00;99444.78;5035363;28;61194;-59
2021/04/06 09:05:50;;;;;;;5.13;4.13;;;5.90;81.40;;;2.81;100.00;99445.13;5033455;28;49986;-60
2021/04/06 09:09:19;;;;;;;7.27;4.17;;;6.10;81.30;;;2.42;100.00;99449.28;4925518;28;53952;-59
2021/04/06 09:12:31;;;;;;;5.63;4.30;;;6.20;78.30;;;2.69;100.00;99448.81;5024893;28;56389;-60
2021/04/06 09:15:47;;;;;;;4.47;3.57;;;6.30;77.80;;;2.68;100.00;99455.88;5038875;28;48498;-60
2021/04/06 09:19:01;;;;;;;6.20;3.73;;;6.30;76.20;;;3.07;100.00;99437.63;5034131;28;48515;-58
2021/04/06 09:22:15;;;;;;;6.30;3.77;;;6.40;73.90;;;3.46;100.00;99442.09;5020767;28;43498;-59
2021/04/06 09:25:41;;;;;;;7.83;4.10;;;6.60;75.30;;;3.04;100.00;99449.28;5022706;28;48585;-60
2021/04/06 09:28:52;;;;;;;7.63;4.00;;;6.80;73.70;;;2.66;100.00;99451.69;5033475;28;49060;-59
2021/04/06 09:32:07;;;;;;;7.63;4.40;;;6.70;72.40;;;2.87;100.00;99447.22;5035290;28;44110;-59
2021/04/06 09:35:19;;;;;;;7.33;4.50;;;6.70;70.90;;;3.09;100.00;99452.38;5032874;28;45623;-61
2021/04/06 09:38:34;;;;;;;10.63;3.53;;;6.60;69.50;;;3.44;100.00;99440.56;5039931;28;54645;-60
2021/04/06 09:41:47;;;;;;;6.13;3.90;;;6.80;67.80;;;3.15;100.00;99451.84;5030550;28;45172;-60
2021/04/06 09:45:01;;;;;;;4.07;3.00;;;7.10;66.20;;;2.88;100.00;99448.91;5040584;28;42988;-60
2021/04/06 09:48:13;;;;;;;5.10;3.60;;;7.20;64.70;;;2.85;100.00;99446.53;5040418;28;46018;-58
2021/04/06 09:51:36;;;;;;;7.17;4.30;;;7.10;63.90;;;3.03;100.00;99449.41;5039611;28;50573;-61
2021/04/06 09:58:28;;;;;;;5.60;3.97;;;7.00;66.90;;;2.65;100.00;99450.84;5017903;28;52413;-60
2021/04/06 10:01:46;;;;;;;6.47;5.63;;;6.90;66.90;;;2.56;100.00;99454.25;5035503;27;46863;-60
2021/04/06 10:05:23;;;;;;;7.60;4.43;;;6.70;68.40;;;2.89;100.00;99442.66;5030621;28;51035;-59
2021/04/06 10:08:45;;;;;;;8.40;3.90;;;6.70;69.70;;;2.78;100.00;99450.66;4970144;28;55235;-60
2021/04/06 10:12:05;;;;;;;4.90;3.93;;;6.70;69.10;;;2.23;100.00;99451.75;5014555;28;51950;-61
2021/04/06 10:15:50;;;;;;;6.37;4.20;;;6.50;70.10;;;2.22;100.00;99442.19;5033759;28;52856;-59
2021/04/06 10:19:07;;;;;;;6.33;4.43;;;6.20;71.40;;;3.31;100.00;99432.03;4996364;28;40972;-60
2021/04/06 10:26:48;;;;;;;5.60;3.30;;;6.80;67.80;;;3.24;100.00;99421.97;5015519;28;50150;-61
2021/04/06 10:30:02;;;;;;;3.43;2.90;;;7.00;65.00;;;3.32;100.00;99423.13;4960228;28;41342;-60
2021/04/06 10:33:22;;;;;;;7.17;3.10;;;7.00;64.70;;;3.11;100.00;99424.00;4972086;28;43493;-59
2021/04/06 10:36:36;;;;;;;5.07;3.10;;;7.00;63.50;;;3.08;100.00;99426.09;5042045;28;45605;-59
2021/04/06 10:39:58;;;;;;;5.73;2.87;;;6.90;63.70;;;3.69;100.00;99415.47;5030894;28;42432;-60
2021/04/06 10:43:12;;;;;;;6.10;3.40;;;7.20;64.20;;;4.36;100.00;99409.38;5035216;28;45316;-59
2021/04/06 10:46:38;;;;;;;5.13;3.20;;;7.60;64.60;;;4.55;100.00;99396.13;5032797;28;45327;-60
2021/04/06 10:49:49;;;;;;;4.10;2.90;;;8.20;63.70;;;4.90;100.00;99398.16;5039137;28;41480;-61
2021/04/06 10:56:41;;;;;;;4.53;2.23;;;9.20;57.70;;;4.88;100.00;99382.38;5025796;28;49344;-61
2021/04/06 10:59:55;;;;;;;4.73;2.60;;;9.80;55.60;;;5.99;100.00;99369.00;5039340;28;44242;-61
2021/04/06 11:03:49;;;;;;;4.43;2.57;;;10.10;55.80;;;5.38;100.00;99369.63;5037470;28;48731;-61
2021/04/06 11:10:32;;;;;;;4.67;2.77;;;10.80;52.80;;;5.43;100.00;99361.25;4952797;28;47569;-60
2021/04/06 11:18:04;;;;;;;4.40;2.80;;;10.80;50.90;;;4.66;100.00;99357.06;4865626;28;47048;-61
2021/04/06 11:21:21;;;;;;;5.47;3.77;;;10.50;50.20;;;4.81;100.00;99359.25;4936686;28;47452;-61
2021/04/06 11:24:34;;;;;;;4.73;3.20;;;10.10;50.90;;;4.40;100.00;99350.69;5037921;28;48751;-61
2021/04/06 11:27:46;;;;;;;5.50;2.53;;;9.80;51.80;;;4.52;100.00;99352.22;5044818;28;42867;-61
2021/04/06 11:30:57;;;;;;;5.20;3.00;;;9.50;52.20;;;4.74;100.00;99345.75;5043418;28;45285;-61
2021/04/06 11:34:10;;;;;;;4.83;2.23;;;9.40;53.00;;;4.69;100.00;99348.84;5023388;28;44488;-60
2021/04/06 11:37:49;;;;;;;3.53;2.60;;;9.50;53.10;;;4.44;100.00;99343.31;5035375;28;46813;-62
2021/04/06 11:41:06;;;;;;;3.10;1.77;;;9.40;53.20;;;4.09;100.00;99346.53;5040314;28;49434;-61
2021/04/06 11:44:17;;;;;;;4.63;2.70;;;9.10;55.20;;;3.80;100.00;99352.66;5041758;28;49483;-60
2021/04/06 11:47:31;;;;;;;5.00;3.03;;;8.60;57.00;;;3.22;100.00;99405.41;5043916;28;41844;-60
2021/04/06 11:50:43;;;;;;;4.60;1.50;;;8.00;60.20;;;0.94;100.00;99431.31;5035489;28;42940;-60
2021/04/06 11:53:54;;;;;;;4.27;1.80;;;7.30;81.00;;;-0.14;100.00;99444.72;5033826;28;50560;-62
2021/04/06 11:57:06;;;;;;;4.37;2.13;;;6.10;92.10;;;-0.39;100.00;99449.13;5023308;28;61084;-61
2021/04/06 12:00:17;;;;;;;3.90;1.70;;;4.90;96.00;;;-0.46;100.00;99433.88;5027279;28;53109;-60
2021/04/06 12:03:30;;;;;;;3.83;1.67;;;4.00;99.90;;;-0.35;100.00;99433.94;5017443;28;78931;-59
2021/04/06 12:06:42;;;;;;;4.57;1.80;;;3.40;99.90;;;-0.12;100.00;99432.28;5025523;28;76562;-58
2021/04/06 12:10:01;;;;;;;6.53;3.93;;;3.00;99.90;;;0.13;100.00;99421.63;4999076;28;86824;-57
2021/04/06 12:13:48;;;;;;;4.50;2.27;;;2.90;99.90;;;0.31;100.00;99427.34;5025896;28;69594;-60
2021/04/06 12:20:20;;;;;;;4.33;2.23;;;3.10;99.90;;;0.86;100.00;99415.28;5022032;28;65622;-56
2021/04/06 12:23:32;;;;;;;4.07;2.40;;;3.50;99.90;;;0.87;100.00;99409.88;5038273;28;53133;-58
2021/04/06 12:26:43;;;;;;;5.67;2.40;;;3.80;99.90;;;1.25;100.00;99411.31;5037380;28;51238;-58
2021/04/06 12:33:47;;;;;;;3.97;3.23;;;4.50;99.90;;;1.99;100.00;99393.91;5028798;28;54282;-57
2021/04/06 12:37:06;;;;;;;5.17;3.50;;;4.90;99.90;;;2.12;100.00;99386.66;5029670;28;54688;-59
2021/04/06 12:40:18;;;;;;;5.77;3.67;;;5.30;99.90;;;2.55;100.00;99381.28;5039172;28;52532;-59
2021/04/06 12:43:29;;;;;;;3.50;3.20;;;5.70;99.90;;;2.72;100.00;99383.31;5033104;28;63292;-59
2021/04/06 12:46:40;;;;;;;5.47;3.17;;;6.20;99.90;;;2.73;100.00;99386.78;5026554;28;62739;-56
2021/04/06 12:49:52;;;;;;;4.70;3.00;;;6.30;99.90;;;2.38;100.00;99385.34;5035563;28;52554;-59
2021/04/06 12:53:03;;;;;;;4.60;3.30;;;6.30;99.90;;;2.48;100.00;99388.88;5037134;28;52203;-59
2021/04/06 12:56:15;;;;;;;5.37;2.90;;;6.10;99.90;;;1.87;100.00;99384.34;5038067;28;62107;-58
2021/04/06 12:59:26;;;;;;;4.00;2.30;;;5.80;99.90;;;1.30;100.00;99381.00;5030474;28;55899;-60
2021/04/06 13:02:46;;;;;;;3.87;2.33;;;5.30;99.90;;;1.06;100.00;99367.97;5033804;28;83711;-59
2021/04/06 13:06:07;;;;;;;5.30;2.70;;;4.70;99.90;;;1.10;100.00;99363.31;5023522;28;75751;-60
2021/04/06 13:09:18;;;;;;;3.70;2.90;;;4.30;99.90;;;1.05;100.00;99368.09;5033206;28;55106;-60
2021/04/06 13:12:31;;;;;;;4.80;2.73;;;4.00;99.90;;;1.20;100.00;99373.97;5033753;28;61787;-60
2021/04/06 13:15:42;;;;;;;4.93;3.37;;;3.80;99.90;;;1.19;100.00;99367.84;5036215;28;53927;-59
2021/04/06 13:18:53;;;;;;;6.00;3.77;;;3.70;99.90;;;1.41;100.00;99372.25;5040251;28;53833;-59
2021/04/06 13:22:04;;;;;;;6.37;5.10;;;3.70;99.90;;;1.53;100.00;99373.06;5030701;28;52637;-59
2021/04/06 13:25:16;;;;;;;3.10;2.80;;;3.70;99.90;;;1.52;100.00;99356.41;5034586;28;56894;-58
2021/04/06 13:28:30;;;;;;;4.37;3.40;;;3.80;99.90;;;1.80;100.00;99360.28;5038695;28;50286;-58
2021/04/06 13:31:41;;;;;;;3.80;2.87;;;4.10;99.90;;;2.31;100.00;99352.50;5037800;28;51252;-60
2021/04/06 13:34:52;;;;;;;6.73;3.07;;;4.50;99.90;;;2.46;100.00;99345.94;5041107;28;45751;-59
2021/04/06 13:41:43;;;;;;;4.77;2.87;;;5.70;99.90;;;3.39;100.00;99332.56;5024406;28;52962;-58
2021/04/06 13:44:56;;;;;;;4.53;2.13;;;6.40;99.90;;;3.40;100.00;99325.44;5018072;28;57239;-58
2021/04/06 13:48:07;;;;;;;3.30;2.40;;;7.00;99.90;;;3.51;100.00;99328.81;5025072;28;49865;-57
2021/04/06 13:51:19;;;;;;;3.80;2.00;;;7.30;99.90;;;3.34;100.00;99312.78;5037387;28;52289;-58
2021/04/06 13:54:31;;;;;;;5.63;2.30;;;7.50;95.80;;;3.17;100.00;99309.81;5023727;28;51420;-56
2021/04/06 13:57:42;;;;;;;3.70;1.73;;;7.30;95.50;;;3.36;100.00;99297.59;5034786;28;54785;-55
2021/04/06 14:01:03;;;;;;;3.70;2.00;;;7.10;97.70;;;2.79;100.00;99302.59;5030213;28;54356;-57
2021/04/06 14:04:14;;;;;;;3.00;1.40;;;6.80;96.70;;;2.76;100.00;99305.50;5027550;28;51947;-57
2021/04/06 14:07:25;;;;;;;4.43;2.17;;;6.40;98.00;;;2.65;100.00;99305.59;5035238;28;50836;-57
2021/04/06 14:10:37;;;;;;;4.93;3.00;;;6.10;98.40;;;2.64;100.00;99321.56;5031022;28;49707;-59
2021/04/06 14:14:01;;;;;;;4.30;2.50;;;5.70;99.30;;;2.50;100.00;99320.09;5031494;28;54895;-58
2021/04/06 14:17:13;;;;;;;9.97;3.50;;;5.50;99.90;;;2.12;100.00;99329.44;5024627;28;52892;-54
2021/04/06 14:20:25;;;;;;;3.57;1.63;;;5.20;99.90;;;1.02;100.00;99347.25;5034941;28;55871;-59
2021/04/06 14:23:38;;;;;;;8.37;3.33;;;4.80;99.90;;;0.55;100.00;99343.06;5028743;28;59173;-59
2021/04/06 14:27:02;;;;;;;7.93;4.47;;;4.10;99.90;;;0.35;100.00;99321.75;5032052;28;56448;-58
2021/04/06 14:30:27;;;;;;;4.77;2.97;;;3.50;99.90;;;0.35;100.00;99324.38;5034850;28;67614;-60
2021/04/06 14:34:03;;;;;;;9.40;5.67;;;3.10;99.90;;;0.30;100.00;99316.00;5030726;28;58634;-58
2021/04/06 14:37:16;;;;;;;7.73;3.93;;;2.80;99.90;;;0.37;100.00;99310.28;5033600;28;53598;-57
2021/04/06 14:40:28;;;;;;;3.30;1.77;;;2.60;99.90;;;0.36;100.00;99304.16;5027579;28;53379;-59
2021/04/06 14:43:53;;;;;;;5.47;2.40;;;2.50;99.90;;;0.62;100.00;99299.50;5032254;28;54328;-58
2021/04/06 14:47:04;;;;;;;6.03;2.30;;;2.50;99.90;;;1.02;100.00;99295.41;5031804;27;64934;-60
2021/04/06 14:50:16;;;;;;;6.97;2.30;;;2.60;99.90;;;1.37;100.00;99297.00;5026351;28;58726;-57
2021/04/06 14:53:30;;;;;;;4.57;2.00;;;3.00;99.90;;;2.12;100.00;99286.38;5031233;28;55550;-59